AirNav   ProFlight Series 2 Aviation Headset
 
 475 users online  

99FD Heli-Tech Inc Heliport
Panama City, Florida, USA

GOING TO PANAMA CITY?


FAA INFORMATION EFFECTIVE 16 JULY 2020

Location

FAA Identifier: 99FD
Lat/Long: 30-12-40.7230N 085-41-29.7440W
30-12.678717N 085-41.495733W
30.2113119,-85.6915956
(estimated)
Elevation: 10 ft. / 3 m (estimated)
Variation: 01W (1990)
From city: 3 miles SE of PANAMA CITY, FL
Time zone: UTC -5 (UTC -6 during Standard Time)
Zip code: 32405

Heliport Operations

Heliport use: Private use. Permission required prior to landing
Activation date: 04/1993
Control tower: no
ARTCC: JACKSONVILLE CENTER
FSS: GAINESVILLE FLIGHT SERVICE STATION
Attendance: MON-FRI 0800-1700
Wind indicator: yes
Segmented circle: no

Heliport Communications

WX ASOS at ECP (10 nm NW): 119.975 (850-235-7857)

Nearby radio navigation aids

NDB name  Hdg/Dist  Freq  Var  ID
LYNNE150/8.427804WPFN .--. ..-. -.

Heliport Services

Runway Information

Helipad H1

Dimensions: 30 x 30 ft. / 9 x 9 m
Surface: turf, in good condition
Traffic pattern: leftleft

Heliport Ownership and Management from official FAA records

Ownership: Privately-owned
Owner: HELI-TECH INC
3621 FRANKFORD AVE
PANAMA CITY, FL 32405
Phone 850-763-9000
Manager: KEN THRASHER
HELI-TECH INC, 3621 FRANKFORD AVE
PANAMA CITY, FL 32405
Phone 850-763-9000

Additional Remarks

A52-H1 30 FT PLINE INVOF LDG PAD.
FOR CD CTC TYNDALL APCH AT 850-283-2900 OR 850-283-3353, WHEN APCH CLSD CTC JACKSONVILLE ARTCC AT 904-845-1592.

Instrument Procedures

There are no published instrument procedures at 99FD.

Some nearby airports with instrument procedures:

KECP - Northwest Florida Beaches International Airport (10 nm NW)
KPAM - Tyndall Air Force Base (10 nm SE)
1J0 - Tri-County Airport (38 nm N)
54J - DeFuniak Springs Airport (39 nm NW)
KDTS - Destin Executive Airport (42 nm W)
 
Loc | Ops | Rwys | IFR | FBO | Links
Com | Nav | Svcs | Stats | Notes

Continental Services
AirBoss

 
Area around 99FD (Heli-Tech Inc Heliport)
 
Road maps at: MapQuest Bing Google
 
Aerial photo
No photo
 
Sectional chart

 
Airport distance calculator
Flying to Heli-Tech Inc Heliport? Find the distance to fly.

From to 99FD

Sunrise and sunset
Times for 13-Aug-2020
 Local
(UTC-5)
 Zulu
(UTC)
Morning civil twilight05:4510:45
Sunrise06:1011:10
Sunset19:2500:25
Evening civil twilight19:5000:50

Current date and time
Zulu (UTC)  13-Aug-2020 07:17:08
Local (UTC-5)  13-Aug-2020 02:17:08
 
METAR
KECP 
10nm NW 
130653Z AUTO 00000KT 10SM CLR 25/25 A2998 RMK AO2 SLP162 T02500250
KPAM 
11nm SE 
130656Z AUTO 00000KT 10SM CLR 26/23 A2998 RMK AO2 SLP155 T02560234 $
KTDR 
13nm SE 
130656Z AUTO 00000KT 10SM CLR 27/24 A2999 RMK AO2 SLP159 T02680236 $
TAF
KECP 
10nm NW 
130520Z 1306/1406 VRB03KT P6SM SCT120 FM131700 18007KT P6SM VCTS BKN050CB FM140000 20003KT P6SM FEW060 SCT120
KPAM 
11nm SE 
121900Z 1219/1401 22009KT 9999 -SHRA FEW005 SCT020 BKN050 QNH2997INS TEMPO 1219/1222 24012G18KT 6000 TSRA BKN025CB BECMG 1222/1223 24006KT 9999 NSW SCT035 BKN050 QNH2997INS BECMG 1314/1315 23009KT 9999 SCT020 BKN150 QNH2995INS TEMPO 1315/1320 24012G18KT 8000 TSRA SCT020CB BKN050 TX31/1319Z TN24/1309Z LAST NO AMDS AFT 1222 NEXT 1311
NOTAMs
Click for the latest NOTAMs
NOTAMs are issued by the DoD/FAA and will open in a separate window not controlled by AirNav.

 

 
 

Would you like to see your business listed on this page?

 If your business provides an interesting product or service to pilots, flight crews, aircraft, or users of the Heli-Tech Inc Heliport, you should consider listing it here.  To start the listing process, click on the button below
 
Add a business
 

Other Pages about Heli-Tech Inc Heliport

Update a link
 
Copyright © AirNav, LLC. All rights reserved. Privacy Policy  Contact